sensor_id;sensor_type;location;lat;lon;timestamp;pressure;altitude;pressure_sealevel;temperature;humidity
50790;BME280;37287;47.554;7.844;2023-02-22T00:00:43;97768.94;;;2.68;100.00
50790;BME280;37287;47.554;7.844;2023-02-22T00:03:16;97759.66;;;2.66;100.00
50790;BME280;37287;47.554;7.844;2023-02-22T00:05:45;97768.81;;;2.65;100.00
50790;BME280;37287;47.554;7.844;2023-02-22T00:08:14;97762.88;;;2.59;100.00
50790;BME280;37287;47.554;7.844;2023-02-22T00:10:43;97760.53;;;2.57;100.00
50790;BME280;37287;47.554;7.844;2023-02-22T00:13:13;97762.75;;;2.55;100.00
50790;BME280;37287;47.554;7.844;2023-02-22T00:15:39;97771.56;;;2.56;100.00
50790;BME280;37287;47.554;7.844;2023-02-22T00:18:07;97766.50;;;2.54;100.00
50790;BME280;37287;47.554;7.844;2023-02-22T00:20:38;97776.09;;;2.55;100.00
50790;BME280;37287;47.554;7.844;2023-02-22T00:23:07;97766.72;;;2.49;100.00
50790;BME280;37287;47.554;7.844;2023-02-22T00:25:34;97768.00;;;2.43;100.00
50790;BME280;37287;47.554;7.844;2023-02-22T00:28:01;97775.13;;;2.39;100.00
50790;BME280;37287;47.554;7.844;2023-02-22T00:30:32;97762.06;;;2.37;100.00
50790;BME280;37287;47.554;7.844;2023-02-22T00:33:02;97761.44;;;2.40;100.00
50790;BME280;37287;47.554;7.844;2023-02-22T00:35:30;97763.84;;;2.33;100.00
50790;BME280;37287;47.554;7.844;2023-02-22T00:37:59;97764.34;;;2.27;100.00
50790;BME280;37287;47.554;7.844;2023-02-22T00:40:28;97761.41;;;2.19;100.00
50790;BME280;37287;47.554;7.844;2023-02-22T00:43:03;97756.88;;;2.11;100.00
50790;BME280;37287;47.554;7.844;2023-02-22T00:45:31;97759.72;;;2.06;100.00
50790;BME280;37287;47.554;7.844;2023-02-22T00:47:59;97766.34;;;2.00;100.00
50790;BME280;37287;47.554;7.844;2023-02-22T00:50:28;97755.84;;;1.95;100.00
50790;BME280;37287;47.554;7.844;2023-02-22T00:52:56;97755.84;;;1.95;100.00
50790;BME280;37287;47.554;7.844;2023-02-22T00:55:28;97753.81;;;1.92;100.00
50790;BME280;37287;47.554;7.844;2023-02-22T00:57:58;97763.13;;;1.85;100.00
50790;BME280;37287;47.554;7.844;2023-02-22T01:00:33;97760.16;;;1.78;100.00
50790;BME280;37287;47.554;7.844;2023-02-22T01:03:04;97760.00;;;1.75;100.00
50790;BME280;37287;47.554;7.844;2023-02-22T01:05:33;97760.78;;;1.75;100.00
50790;BME280;37287;47.554;7.844;2023-02-22T01:08:01;97752.66;;;1.71;100.00
50790;BME280;37287;47.554;7.844;2023-02-22T01:10:29;97751.41;;;1.69;100.00
50790;BME280;37287;47.554;7.844;2023-02-22T01:12:58;97752.03;;;1.66;100.00
50790;BME280;37287;47.554;7.844;2023-02-22T01:15:27;97748.28;;;1.67;100.00
50790;BME280;37287;47.554;7.844;2023-02-22T01:18:02;97748.56;;;1.65;100.00
50790;BME280;37287;47.554;7.844;2023-02-22T01:20:28;97744.50;;;1.68;100.00
50790;BME280;37287;47.554;7.844;2023-02-22T01:22:59;97743.72;;;1.67;100.00
50790;BME280;37287;47.554;7.844;2023-02-22T01:25:28;97750.47;;;1.65;100.00
50790;BME280;37287;47.554;7.844;2023-02-22T01:27:56;97746.22;;;1.64;100.00
50790;BME280;37287;47.554;7.844;2023-02-22T01:30:26;97747.34;;;1.63;100.00
50790;BME280;37287;47.554;7.844;2023-02-22T01:33:02;97743.88;;;1.62;100.00
50790;BME280;37287;47.554;7.844;2023-02-22T01:35:32;97743.13;;;1.62;100.00
50790;BME280;37287;47.554;7.844;2023-02-22T01:37:59;97745.94;;;1.57;100.00
50790;BME280;37287;47.554;7.844;2023-02-22T01:40:32;97735.91;;;1.53;100.00
50790;BME280;37287;47.554;7.844;2023-02-22T01:43:05;97747.06;;;1.47;100.00
50790;BME280;37287;47.554;7.844;2023-02-22T01:45:49;97740.03;;;1.42;100.00
50790;BME280;37287;47.554;7.844;2023-02-22T01:48:35;97740.19;;;1.37;100.00
50790;BME280;37287;47.554;7.844;2023-02-22T01:51:13;97742.06;;;1.36;100.00
50790;BME280;37287;47.554;7.844;2023-02-22T01:53:54;97734.84;;;1.37;100.00
50790;BME280;37287;47.554;7.844;2023-02-22T01:56:24;97737.72;;;1.32;100.00
50790;BME280;37287;47.554;7.844;2023-02-22T01:58:56;97733.63;;;1.26;100.00
50790;BME280;37287;47.554;7.844;2023-02-22T02:01:25;97733.31;;;1.27;100.00
50790;BME280;37287;47.554;7.844;2023-02-22T02:03:55;97738.47;;;1.32;100.00
50790;BME280;37287;47.554;7.844;2023-02-22T02:06:27;97724.97;;;1.37;100.00
50790;BME280;37287;47.554;7.844;2023-02-22T02:09:02;97723.41;;;1.36;100.00
50790;BME280;37287;47.554;7.844;2023-02-22T02:11:32;97726.53;;;1.38;100.00
50790;BME280;37287;47.554;7.844;2023-02-22T02:14:00;97727.31;;;1.39;100.00
50790;BME280;37287;47.554;7.844;2023-02-22T02:16:37;97714.44;;;1.41;100.00
50790;BME280;37287;47.554;7.844;2023-02-22T02:19:21;97718.84;;;1.37;100.00
50790;BME280;37287;47.554;7.844;2023-02-22T02:22:09;97716.03;;;1.33;100.00
50790;BME280;37287;47.554;7.844;2023-02-22T02:27:39;97716.53;;;1.27;100.00
50790;BME280;37287;47.554;7.844;2023-02-22T02:33:08;97700.69;;;1.22;100.00
50790;BME280;37287;47.554;7.844;2023-02-22T02:36:14;97700.56;;;1.18;100.00
50790;BME280;37287;47.554;7.844;2023-02-22T02:38:58;97702.44;;;1.17;100.00
50790;BME280;37287;47.554;7.844;2023-02-22T02:41:34;97695.53;;;1.16;100.00
50790;BME280;37287;47.554;7.844;2023-02-22T02:46:38;97698.03;;;1.13;100.00
50790;BME280;37287;47.554;7.844;2023-02-22T02:49:15;97691.47;;;1.10;100.00
50790;BME280;37287;47.554;7.844;2023-02-22T02:51:48;97691.78;;;1.09;100.00
50790;BME280;37287;47.554;7.844;2023-02-22T02:54:17;97691.00;;;1.08;100.00
50790;BME280;37287;47.554;7.844;2023-02-22T02:56:46;97687.88;;;1.06;100.00
50790;BME280;37287;47.554;7.844;2023-02-22T02:59:31;97678.94;;;1.02;100.00
50790;BME280;37287;47.554;7.844;2023-02-22T03:02:23;97680.81;;;1.01;100.00
50790;BME280;37287;47.554;7.844;2023-02-22T03:13:23;97682.91;;;0.78;100.00
50790;BME280;37287;47.554;7.844;2023-02-22T03:16:00;97684.47;;;0.71;100.00
50790;BME280;37287;47.554;7.844;2023-02-22T03:19:08;97676.47;;;0.62;100.00
50790;BME280;37287;47.554;7.844;2023-02-22T03:21:48;97682.75;;;0.57;100.00
50790;BME280;37287;47.554;7.844;2023-02-22T03:24:29;97681.50;;;0.55;100.00
50790;BME280;37287;47.554;7.844;2023-02-22T03:27:08;97676.03;;;0.51;100.00
50790;BME280;37287;47.554;7.844;2023-02-22T03:29:42;97680.09;;;0.48;100.00
50790;BME280;37287;47.554;7.844;2023-02-22T03:32:18;97678.69;;;0.42;100.00
50790;BME280;37287;47.554;7.844;2023-02-22T03:34:56;97678.84;;;0.37;100.00
50790;BME280;37287;47.554;7.844;2023-02-22T03:37:29;97683.22;;;0.33;100.00
50790;BME280;37287;47.554;7.844;2023-02-22T03:40:01;97682.75;;;0.31;100.00
50790;BME280;37287;47.554;7.844;2023-02-22T03:42:45;97678.69;;;0.25;100.00
50790;BME280;37287;47.554;7.844;2023-02-22T03:45:15;97671.78;;;0.32;100.00
50790;BME280;37287;47.554;7.844;2023-02-22T03:47:48;97676.94;;;0.46;100.00
50790;BME280;37287;47.554;7.844;2023-02-22T03:50:20;97686.34;;;0.44;100.00
50790;BME280;37287;47.554;7.844;2023-02-22T03:52:48;97678.69;;;0.42;100.00
50790;BME280;37287;47.554;7.844;2023-02-22T03:55:17;97681.34;;;0.42;100.00
50790;BME280;37287;47.554;7.844;2023-02-22T03:57:56;97673.84;;;0.44;100.00
50790;BME280;37287;47.554;7.844;2023-02-22T04:00:28;97678.84;;;0.46;100.00
50790;BME280;37287;47.554;7.844;2023-02-22T04:02:56;97672.44;;;0.47;100.00
50790;BME280;37287;47.554;7.844;2023-02-22T04:05:25;97677.44;;;0.48;100.00
50790;BME280;37287;47.554;7.844;2023-02-22T04:07:58;97674.91;;;0.52;100.00
50790;BME280;37287;47.554;7.844;2023-02-22T04:10:24;97668.50;;;0.53;100.00
50790;BME280;37287;47.554;7.844;2023-02-22T04:12:51;97668.94;;;0.55;100.00
50790;BME280;37287;47.554;7.844;2023-02-22T04:15:22;97669.28;;;0.62;100.00
50790;BME280;37287;47.554;7.844;2023-02-22T04:17:50;97677.28;;;0.71;100.00
50790;BME280;37287;47.554;7.844;2023-02-22T04:20:18;97672.88;;;0.75;100.00
50790;BME280;37287;47.554;7.844;2023-02-22T04:22:47;97674.91;;;0.78;100.00
50790;BME280;37287;47.554;7.844;2023-02-22T04:25:16;97670.22;;;0.75;100.00
50790;BME280;37287;47.554;7.844;2023-02-22T04:27:44;97669.41;;;0.75;100.00
50790;BME280;37287;47.554;7.844;2023-02-22T04:30:11;97666.44;;;0.76;100.00
50790;BME280;37287;47.554;7.844;2023-02-22T04:32:38;97669.09;;;0.76;100.00
50790;BME280;37287;47.554;7.844;2023-02-22T04:35:05;97677.41;;;0.75;100.00
50790;BME280;37287;47.554;7.844;2023-02-22T04:37:38;97675.38;;;0.72;100.00
50790;BME280;37287;47.554;7.844;2023-02-22T04:40:05;97676.34;;;0.67;100.00
50790;BME280;37287;47.554;7.844;2023-02-22T04:42:34;97670.53;;;0.65;100.00
50790;BME280;37287;47.554;7.844;2023-02-22T04:45:05;97663.16;;;0.62;100.00
50790;BME280;37287;47.554;7.844;2023-02-22T04:47:36;97667.09;;;0.56;100.00
50790;BME280;37287;47.554;7.844;2023-02-22T04:50:04;97668.31;;;0.49;100.00
50790;BME280;37287;47.554;7.844;2023-02-22T04:52:31;97665.34;;;0.42;100.00
50790;BME280;37287;47.554;7.844;2023-02-22T04:54:57;97660.66;;;0.30;100.00
50790;BME280;37287;47.554;7.844;2023-02-22T04:57:24;97655.03;;;0.23;100.00
50790;BME280;37287;47.554;7.844;2023-02-22T04:59:54;97667.06;;;0.21;100.00
50790;BME280;37287;47.554;7.844;2023-02-22T05:02:21;97657.06;;;0.17;100.00
50790;BME280;37287;47.554;7.844;2023-02-22T05:04:48;97669.44;;;0.13;100.00
50790;BME280;37287;47.554;7.844;2023-02-22T05:07:14;97661.56;;;0.08;100.00
50790;BME280;37287;47.554;7.844;2023-02-22T05:09:41;97661.75;;;0.03;100.00
50790;BME280;37287;47.554;7.844;2023-02-22T05:12:07;97660.00;;;-0.02;100.00
50790;BME280;37287;47.554;7.844;2023-02-22T05:14:36;97660.94;;;-0.06;100.00
50790;BME280;37287;47.554;7.844;2023-02-22T05:17:02;97663.13;;;-0.08;100.00
50790;BME280;37287;47.554;7.844;2023-02-22T05:19:29;97665.78;;;-0.08;100.00
50790;BME280;37287;47.554;7.844;2023-02-22T05:21:56;97656.25;;;-0.09;100.00
50790;BME280;37287;47.554;7.844;2023-02-22T05:24:23;97662.81;;;-0.15;100.00
50790;BME280;37287;47.554;7.844;2023-02-22T05:26:49;97662.63;;;-0.19;100.00
50790;BME280;37287;47.554;7.844;2023-02-22T05:29:19;97666.38;;;-0.20;100.00
50790;BME280;37287;47.554;7.844;2023-02-22T05:31:46;97665.59;;;-0.21;100.00
50790;BME280;37287;47.554;7.844;2023-02-22T05:34:13;97669.34;;;-0.22;100.00
50790;BME280;37287;47.554;7.844;2023-02-22T05:36:40;97666.38;;;-0.20;100.00
50790;BME280;37287;47.554;7.844;2023-02-22T05:39:07;97665.63;;;-0.12;100.00
50790;BME280;37287;47.554;7.844;2023-02-22T05:41:33;97658.41;;;-0.11;100.00
50790;BME280;37287;47.554;7.844;2023-02-22T05:44:00;97657.81;;;-0.08;100.00
50790;BME280;37287;47.554;7.844;2023-02-22T05:46:28;97657.97;;;-0.05;100.00
50790;BME280;37287;47.554;7.844;2023-02-22T05:48:57;97660.94;;;-0.06;100.00
50790;BME280;37287;47.554;7.844;2023-02-22T05:51:30;97657.81;;;-0.08;100.00
50790;BME280;37287;47.554;7.844;2023-02-22T05:53:56;97663.28;;;-0.05;100.00
50790;BME280;37287;47.554;7.844;2023-02-22T05:56:25;97661.56;;;-0.09;100.00
50790;BME280;37287;47.554;7.844;2023-02-22T05:58:55;97660.16;;;-0.07;100.00
50790;BME280;37287;47.554;7.844;2023-02-22T06:01:22;97665.16;;;-0.05;100.00
50790;BME280;37287;47.554;7.844;2023-02-22T06:03:50;97661.06;;;-0.11;100.00
50790;BME280;37287;47.554;7.844;2023-02-22T06:06:18;97658.56;;;-0.16;100.00
50790;BME280;37287;47.554;7.844;2023-02-22T06:08:48;97659.19;;;-0.20;100.00
50790;BME280;37287;47.554;7.844;2023-02-22T06:11:16;97665.59;;;-0.21;100.00
50790;BME280;37287;47.554;7.844;2023-02-22T06:13:50;97662.16;;;-0.21;100.00
50790;BME280;37287;47.554;7.844;2023-02-22T06:16:18;97661.06;;;-0.20;100.00
50790;BME280;37287;47.554;7.844;2023-02-22T06:18:45;97665.94;;;-0.13;100.00
50790;BME280;37287;47.554;7.844;2023-02-22T06:21:15;97667.50;;;-0.12;100.00
50790;BME280;37287;47.554;7.844;2023-02-22T06:23:43;97664.22;;;-0.09;100.00
50790;BME280;37287;47.554;7.844;2023-02-22T06:26:10;97666.75;;;-0.04;100.00
50790;BME280;37287;47.554;7.844;2023-02-22T06:28:36;97668.94;;;0.03;100.00
50790;BME280;37287;47.554;7.844;2023-02-22T06:31:03;97674.28;;;0.11;100.00
50790;BME280;37287;47.554;7.844;2023-02-22T06:33:29;97676.31;;;0.14;100.00
50790;BME280;37287;47.554;7.844;2023-02-22T06:35:58;97682.09;;;0.16;100.00
50790;BME280;37287;47.554;7.844;2023-02-22T06:38:25;97675.84;;;0.21;100.00
50790;BME280;37287;47.554;7.844;2023-02-22T06:40:53;97688.25;;;0.26;100.00
50790;BME280;37287;47.554;7.844;2023-02-22T06:43:23;97681.66;;;0.32;100.00
50790;BME280;37287;47.554;7.844;2023-02-22T06:45:51;97681.97;;;0.39;100.00
50790;BME280;37287;47.554;7.844;2023-02-22T06:48:18;97684.00;;;0.42;100.00
50790;BME280;37287;47.554;7.844;2023-02-22T06:50:46;97682.13;;;0.51;100.00
50790;BME280;37287;47.554;7.844;2023-02-22T06:53:13;97689.16;;;0.65;100.00
50790;BME280;37287;47.554;7.844;2023-02-22T06:55:39;97684.63;;;0.83;100.00
50790;BME280;37287;47.554;7.844;2023-02-22T06:58:08;97688.69;;;0.98;100.00
50790;BME280;37287;47.554;7.844;2023-02-22T07:00:34;97688.03;;;1.01;100.00
50790;BME280;37287;47.554;7.844;2023-02-22T07:03:03;97693.81;;;1.03;100.00
50790;BME280;37287;47.554;7.844;2023-02-22T07:05:31;97689.28;;;1.03;100.00
50790;BME280;37287;47.554;7.844;2023-02-22T07:08:04;97691.00;;;1.08;100.00
50790;BME280;37287;47.554;7.844;2023-02-22T07:10:32;97681.56;;;1.19;100.00
50790;BME280;37287;47.554;7.844;2023-02-22T07:13:01;97684.69;;;1.22;100.00
50790;BME280;37287;47.554;7.844;2023-02-22T07:15:29;97690.19;;;1.25;100.00
50790;BME280;37287;47.554;7.844;2023-02-22T07:17:55;97701.75;;;1.38;100.00
50790;BME280;37287;47.554;7.844;2023-02-22T07:20:25;97702.63;;;1.51;100.00
50790;BME280;37287;47.554;7.844;2023-02-22T07:22:52;97701.38;;;1.57;100.00
50790;BME280;37287;47.554;7.844;2023-02-22T07:25:20;97693.66;;;1.64;100.00
50790;BME280;37287;47.554;7.844;2023-02-22T07:27:54;97701.16;;;1.71;100.00
50790;BME280;37287;47.554;7.844;2023-02-22T07:32:57;97701.78;;;1.68;100.00
50790;BME280;37287;47.554;7.844;2023-02-22T07:35:33;97702.31;;;1.91;100.00
50790;BME280;37287;47.554;7.844;2023-02-22T07:38:03;97698.19;;;2.02;100.00
50790;BME280;37287;47.554;7.844;2023-02-22T07:40:31;97699.75;;;2.24;100.00
50790;BME280;37287;47.554;7.844;2023-02-22T07:43:20;97695.94;;;2.55;100.00
50790;BME280;37287;47.554;7.844;2023-02-22T07:45:49;97701.00;;;2.69;100.00
50790;BME280;37287;47.554;7.844;2023-02-22T07:48:17;97690.41;;;2.94;100.00
50790;BME280;37287;47.554;7.844;2023-02-22T07:50:44;97702.63;;;3.16;100.00
50790;BME280;37287;47.554;7.844;2023-02-22T07:53:25;97702.13;;;3.48;100.00
50790;BME280;37287;47.554;7.844;2023-02-22T07:55:55;97694.13;;;3.72;100.00
50790;BME280;37287;47.554;7.844;2023-02-22T07:58:25;97699.50;;;3.85;100.00
50790;BME280;37287;47.554;7.844;2023-02-22T08:00:52;97703.72;;;3.98;100.00
50790;BME280;37287;47.554;7.844;2023-02-22T08:03:22;97704.47;;;4.11;100.00
50790;BME280;37287;47.554;7.844;2023-02-22T08:05:54;97705.38;;;4.27;100.00
50790;BME280;37287;47.554;7.844;2023-02-22T08:08:21;97705.78;;;4.42;99.90
50790;BME280;37287;47.554;7.844;2023-02-22T08:10:49;97700.13;;;4.59;98.41
50790;BME280;37287;47.554;7.844;2023-02-22T08:13:21;97705.47;;;4.72;97.15
50790;BME280;37287;47.554;7.844;2023-02-22T08:15:51;97707.13;;;4.76;95.76
50790;BME280;37287;47.554;7.844;2023-02-22T08:18:19;97704.41;;;4.89;95.04
50790;BME280;37287;47.554;7.844;2023-02-22T08:20:49;97708.25;;;5.04;93.94
50790;BME280;37287;47.554;7.844;2023-02-22T08:23:19;97705.25;;;5.21;93.06
50790;BME280;37287;47.554;7.844;2023-02-22T08:25:47;97703.84;;;5.56;92.47
50790;BME280;37287;47.554;7.844;2023-02-22T08:28:17;97698.38;;;5.84;91.27
50790;BME280;37287;47.554;7.844;2023-02-22T08:30:45;97702.00;;;5.92;89.46
50790;BME280;37287;47.554;7.844;2023-02-22T08:33:13;97706.66;;;5.95;88.47
50790;BME280;37287;47.554;7.844;2023-02-22T08:35:42;97713.50;;;5.92;88.02
50790;BME280;37287;47.554;7.844;2023-02-22T08:38:23;97711.00;;;5.99;88.48
50790;BME280;37287;47.554;7.844;2023-02-22T08:40:53;97713.69;;;5.99;88.25
50790;BME280;37287;47.554;7.844;2023-02-22T08:43:22;97713.19;;;6.10;88.25
50790;BME280;37287;47.554;7.844;2023-02-22T08:45:49;97709.69;;;6.25;88.72
50790;BME280;37287;47.554;7.844;2023-02-22T08:48:18;97708.38;;;6.35;87.98
50790;BME280;37287;47.554;7.844;2023-02-22T08:50:46;97708.94;;;6.44;88.47
50790;BME280;37287;47.554;7.844;2023-02-22T08:53:15;97708.88;;;6.60;87.36
50790;BME280;37287;47.554;7.844;2023-02-22T08:55:48;97708.25;;;6.67;87.27
50790;BME280;37287;47.554;7.844;2023-02-22T08:58:15;97704.31;;;6.80;87.56
50790;BME280;37287;47.554;7.844;2023-02-22T09:00:42;97705.69;;;6.94;86.97
50790;BME280;37287;47.554;7.844;2023-02-22T09:03:13;97704.47;;;7.11;87.09
50790;BME280;37287;47.554;7.844;2023-02-22T09:05:40;97703.72;;;7.33;86.33
50790;BME280;37287;47.554;7.844;2023-02-22T09:08:08;97707.22;;;7.57;85.18
50790;BME280;37287;47.554;7.844;2023-02-22T09:10:35;97703.44;;;7.85;84.24
50790;BME280;37287;47.554;7.844;2023-02-22T09:13:02;97694.56;;;8.11;83.35
50790;BME280;37287;47.554;7.844;2023-02-22T09:15:30;97702.66;;;8.38;81.79
50790;BME280;37287;47.554;7.844;2023-02-22T09:17:59;97707.69;;;8.66;81.49
50790;BME280;37287;47.554;7.844;2023-02-22T09:20:29;97710.91;;;8.79;79.81
50790;BME280;37287;47.554;7.844;2023-02-22T09:22:58;97701.91;;;9.02;79.19
50790;BME280;37287;47.554;7.844;2023-02-22T09:25:26;97696.97;;;9.07;78.04
50790;BME280;37287;47.554;7.844;2023-02-22T09:27:55;97695.00;;;9.42;78.82
50790;BME280;37287;47.554;7.844;2023-02-22T09:30:31;97699.09;;;9.70;75.87
50790;BME280;37287;47.554;7.844;2023-02-22T09:33:01;97700.00;;;9.85;76.54
50790;BME280;37287;47.554;7.844;2023-02-22T09:35:28;97711.88;;;10.32;75.92
50790;BME280;37287;47.554;7.844;2023-02-22T09:37:56;97707.25;;;11.06;73.43
50790;BME280;37287;47.554;7.844;2023-02-22T09:40:25;97701.81;;;11.06;70.59
50790;BME280;37287;47.554;7.844;2023-02-22T09:43:03;97704.97;;;11.26;72.05
50790;BME280;37287;47.554;7.844;2023-02-22T09:45:37;97695.72;;;11.88;68.94
50790;BME280;37287;47.554;7.844;2023-02-22T09:48:11;97704.19;;;12.48;66.70
50790;BME280;37287;47.554;7.844;2023-02-22T09:50:50;97695.59;;;12.68;62.72
50790;BME280;37287;47.554;7.844;2023-02-22T09:53:35;97698.25;;;13.56;62.61
50790;BME280;37287;47.554;7.844;2023-02-22T09:56:08;97693.91;;;14.12;56.13
50790;BME280;37287;47.554;7.844;2023-02-22T09:58:42;97687.25;;;13.71;58.04
50790;BME280;37287;47.554;7.844;2023-02-22T10:01:32;97684.00;;;12.49;60.23
50790;BME280;37287;47.554;7.844;2023-02-22T10:04:25;97683.31;;;11.73;62.85
50790;BME280;37287;47.554;7.844;2023-02-22T10:07:10;97687.59;;;11.60;66.58
50790;BME280;37287;47.554;7.844;2023-02-22T10:09:42;97674.78;;;11.31;65.79
50790;BME280;37287;47.554;7.844;2023-02-22T10:12:27;97683.53;;;10.81;67.66
50790;BME280;37287;47.554;7.844;2023-02-22T10:15:13;97679.19;;;10.55;70.33
50790;BME280;37287;47.554;7.844;2023-02-22T10:18:09;97680.66;;;10.42;70.99
50790;BME280;37287;47.554;7.844;2023-02-22T10:23:37;97674.09;;;10.39;72.47
50790;BME280;37287;47.554;7.844;2023-02-22T10:28:42;97663.06;;;10.80;71.79
50790;BME280;37287;47.554;7.844;2023-02-22T10:31:19;97665.06;;;11.01;71.49
50790;BME280;37287;47.554;7.844;2023-02-22T10:33:54;97663.91;;;11.06;71.18
50790;BME280;37287;47.554;7.844;2023-02-22T10:36:24;97668.53;;;11.09;70.96
50790;BME280;37287;47.554;7.844;2023-02-22T10:39:04;97669.31;;;11.06;71.51
50790;BME280;37287;47.554;7.844;2023-02-22T10:41:43;97657.34;;;11.14;71.09
50790;BME280;37287;47.554;7.844;2023-02-22T10:44:13;97658.50;;;11.13;70.10
50790;BME280;37287;47.554;7.844;2023-02-22T10:46:41;97662.38;;;11.27;71.26
50790;BME280;37287;47.554;7.844;2023-02-22T10:49:09;97659.28;;;11.53;70.94
50790;BME280;37287;47.554;7.844;2023-02-22T10:51:38;97652.72;;;11.83;70.16
50790;BME280;37287;47.554;7.844;2023-02-22T10:54:17;97650.38;;;12.07;69.46
50790;BME280;37287;47.554;7.844;2023-02-22T10:56:48;97657.31;;;12.23;68.44
50790;BME280;37287;47.554;7.844;2023-02-22T10:59:27;97649.94;;;12.34;68.55
50790;BME280;37287;47.554;7.844;2023-02-22T11:07:25;97651.38;;;12.64;67.03
50790;BME280;37287;47.554;7.844;2023-02-22T11:10:01;97647.41;;;12.79;66.64
50790;BME280;37287;47.554;7.844;2023-02-22T11:12:33;97651.66;;;12.87;66.36
50790;BME280;37287;47.554;7.844;2023-02-22T11:17:49;97637.91;;;13.16;65.80
50790;BME280;37287;47.554;7.844;2023-02-22T11:20:29;97631.19;;;13.35;65.63
50790;BME280;37287;47.554;7.844;2023-02-22T11:23:02;97628.75;;;13.48;65.24
50790;BME280;37287;47.554;7.844;2023-02-22T11:25:35;97627.63;;;13.46;64.73
50790;BME280;37287;47.554;7.844;2023-02-22T11:28:08;97632.72;;;13.33;64.64
50790;BME280;37287;47.554;7.844;2023-02-22T11:30:36;97621.47;;;13.34;65.59
50790;BME280;37287;47.554;7.844;2023-02-22T11:33:20;97623.75;;;13.43;65.16
50790;BME280;37287;47.554;7.844;2023-02-22T11:35:59;97620.59;;;13.52;65.15
50790;BME280;37287;47.554;7.844;2023-02-22T11:38:32;97614.69;;;13.57;65.30
50790;BME280;37287;47.554;7.844;2023-02-22T11:41:17;97607.00;;;13.48;64.99
50790;BME280;37287;47.554;7.844;2023-02-22T11:43:50;97609.03;;;13.37;65.26
50790;BME280;37287;47.554;7.844;2023-02-22T11:46:20;97608.19;;;13.47;65.87
50790;BME280;37287;47.554;7.844;2023-02-22T11:49:09;97611.63;;;13.51;64.78
50790;BME280;37287;47.554;7.844;2023-02-22T11:52:02;97605.78;;;13.53;64.52
50790;BME280;37287;47.554;7.844;2023-02-22T11:57:39;97599.53;;;13.59;65.14
50790;BME280;37287;47.554;7.844;2023-02-22T12:03:02;97599.22;;;13.92;64.69
50790;BME280;37287;47.554;7.844;2023-02-22T12:09:02;97598.47;;;13.91;62.87
50790;BME280;37287;47.554;7.844;2023-02-22T12:17:18;97588.41;;;13.88;64.68
50790;BME280;37287;47.554;7.844;2023-02-22T12:19:49;97594.50;;;14.00;64.30
50790;BME280;37287;47.554;7.844;2023-02-22T12:22:25;97593.34;;;13.97;63.80
50790;BME280;37287;47.554;7.844;2023-02-22T12:25:07;97590.47;;;14.12;63.48
50790;BME280;37287;47.554;7.844;2023-02-22T12:28:20;97582.66;;;14.14;62.53
50790;BME280;37287;47.554;7.844;2023-02-22T12:30:59;97583.56;;;14.03;63.04
50790;BME280;37287;47.554;7.844;2023-02-22T12:33:44;97583.94;;;14.05;63.64
50790;BME280;37287;47.554;7.844;2023-02-22T12:36:18;97578.16;;;14.00;63.34
50790;BME280;37287;47.554;7.844;2023-02-22T12:38:51;97580.66;;;13.83;63.37
50790;BME280;37287;47.554;7.844;2023-02-22T12:44:32;97580.06;;;14.03;63.51
50790;BME280;37287;47.554;7.844;2023-02-22T12:47:00;97585.13;;;14.01;63.59
50790;BME280;37287;47.554;7.844;2023-02-22T12:52:45;97581.59;;;14.04;64.26
50790;BME280;37287;47.554;7.844;2023-02-22T12:55:27;97573.97;;;13.91;63.65
50790;BME280;37287;47.554;7.844;2023-02-22T13:01:15;97580.59;;;13.90;64.90
50790;BME280;37287;47.554;7.844;2023-02-22T13:03:45;97582.13;;;13.91;65.88
50790;BME280;37287;47.554;7.844;2023-02-22T13:06:35;97581.28;;;13.98;65.54
50790;BME280;37287;47.554;7.844;2023-02-22T13:11:59;97573.25;;;13.87;66.17
50790;BME280;37287;47.554;7.844;2023-02-22T13:14:37;97572.00;;;13.92;66.00
50790;BME280;37287;47.554;7.844;2023-02-22T13:17:18;97575.63;;;13.82;66.37
50790;BME280;37287;47.554;7.844;2023-02-22T13:20:02;97567.56;;;13.71;66.55
50790;BME280;37287;47.554;7.844;2023-02-22T13:25:14;97563.81;;;13.57;67.09
50790;BME280;37287;47.554;7.844;2023-02-22T13:27:57;97566.47;;;13.65;68.13
50790;BME280;37287;47.554;7.844;2023-02-22T13:30:39;97561.84;;;13.62;67.46
50790;BME280;37287;47.554;7.844;2023-02-22T13:33:24;97562.25;;;13.60;68.20
50790;BME280;37287;47.554;7.844;2023-02-22T13:52:47;97550.50;;;13.67;69.46
50790;BME280;37287;47.554;7.844;2023-02-22T13:55:21;97550.91;;;13.65;69.32
50790;BME280;37287;47.554;7.844;2023-02-22T13:58:02;97556.00;;;13.63;69.41
50790;BME280;37287;47.554;7.844;2023-02-22T14:00:56;97556.75;;;13.64;69.04
50790;BME280;37287;47.554;7.844;2023-02-22T14:03:39;97546.69;;;13.61;68.79
50790;BME280;37287;47.554;7.844;2023-02-22T14:06:36;97545.63;;;13.47;68.91
50790;BME280;37287;47.554;7.844;2023-02-22T14:09:08;97545.69;;;13.40;69.54
50790;BME280;37287;47.554;7.844;2023-02-22T14:11:43;97541.47;;;13.32;69.68
50790;BME280;37287;47.554;7.844;2023-02-22T14:14:12;97535.72;;;13.22;69.96
50790;BME280;37287;47.554;7.844;2023-02-22T14:16:41;97536.16;;;13.17;71.15
50790;BME280;37287;47.554;7.844;2023-02-22T14:21:34;97548.22;;;13.13;70.89
50790;BME280;37287;47.554;7.844;2023-02-22T14:24:13;97545.53;;;13.09;72.03
50790;BME280;37287;47.554;7.844;2023-02-22T14:26:53;97550.53;;;13.14;71.71
50790;BME280;37287;47.554;7.844;2023-02-22T14:29:20;97545.16;;;13.11;71.87
50790;BME280;37287;47.554;7.844;2023-02-22T14:31:58;97547.88;;;13.07;72.06
50790;BME280;37287;47.554;7.844;2023-02-22T14:34:49;97544.06;;;13.01;72.47
50790;BME280;37287;47.554;7.844;2023-02-22T14:37:34;97553.38;;;13.00;73.06
50790;BME280;37287;47.554;7.844;2023-02-22T14:40:09;97550.66;;;12.96;73.85
50790;BME280;37287;47.554;7.844;2023-02-22T14:42:48;97541.06;;;12.88;74.05
50790;BME280;37287;47.554;7.844;2023-02-22T14:45:25;97543.41;;;12.82;74.64
50790;BME280;37287;47.554;7.844;2023-02-22T14:50:56;97541.53;;;12.72;75.18
50790;BME280;37287;47.554;7.844;2023-02-22T14:53:46;97548.56;;;12.62;75.91